Terminal Aerodrome Forecast
Issued by NWS Upton, NY

Home | Current Version | Previous Version | Text Only | Print | Product List | Glossary On
Versions: 1 2 3 4 5 6 7 8 9 10 11 12 13 14 15 16 17 18 19 20 21 22 23 24 25
000
FTUS41 KOKX 211400 AAA
TAFEWR
TAF AMD
KEWR 211432Z 2115/2218 10004KT P6SM SCT050 SCT080
     FM212300 03005KT 6SM -SHRA BKN035
     FM220700 02009G15KT 6SM -SHRA BKN015
     FM221100 02013G19KT 6SM -SHRA BKN010=

USA.gov is the U.S. government's official web portal to all federal, state and local government web resources and services.